Time;durP1;ratioP1;P1;durP2;ratioP2;P2;SDS_P1;SDS_P2;PMS_P1;PMS_P2;Temp;Humidity;BMP_temperature;BMP_pressure;BME280_temperature;BME280_humidity;BME280_pressure;Samples;Min_cycle;Max_cycle;Signal;HPM_P1;HPM_P2
2021/11/23 00:01:23;;;;;;;2.08;1.85;;;4.00;99.90;;;;;;5030775;28;20026;-76
2021/11/23 00:03:49;;;;;;;4.38;2.17;;;4.20;99.90;;;;;;5014231;28;20396;-75
2021/11/23 00:06:16;;;;;;;0.47;0.47;;;4.10;99.90;;;;;;5015362;28;20018;-76
2021/11/23 00:08:42;;;;;;;3.78;2.80;;;4.00;99.90;;;;;;4997827;28;20397;-75
2021/11/23 00:11:08;;;;;;;1.75;1.58;;;4.00;99.90;;;;;;5014134;28;20117;-76
2021/11/23 00:13:34;;;;;;;2.40;1.13;;;3.90;99.90;;;;;;5014063;28;20112;-76
2021/11/23 00:16:00;;;;;;;0.40;0.40;;;3.90;99.90;;;;;;5015280;28;20030;-76
2021/11/23 00:18:25;;;;;;;1.30;1.30;;;3.90;99.90;;;;;;5015165;28;20060;-76
2021/11/23 00:20:51;;;;;;;1.95;1.35;;;4.00;99.90;;;;;;5013910;28;20489;-76
2021/11/23 00:23:17;;;;;;;2.47;2.25;;;4.00;99.90;;;;;;5014282;28;20435;-75
2021/11/23 00:25:43;;;;;;;4.85;2.88;;;3.90;99.90;;;;;;5015183;28;20021;-76
2021/11/23 00:28:10;;;;;;;2.08;0.95;;;3.80;99.90;;;;;;5013894;28;20062;-75
2021/11/23 00:30:38;;;;;;;4.95;3.22;;;3.60;99.90;;;;;;5013698;28;20022;-76
2021/11/23 00:33:04;;;;;;;0.32;0.32;;;3.50;99.90;;;;;;5013519;28;20100;-76
2021/11/23 00:35:30;;;;;;;3.80;2.05;;;3.60;99.90;;;;;;5014835;28;20022;-76
2021/11/23 00:37:57;;;;;;;4.32;1.95;;;3.50;99.90;;;;;;5014846;28;20074;-76
2021/11/23 00:40:23;;;;;;;8.32;3.28;;;3.70;99.90;;;;;;5014884;28;20490;-76
2021/11/23 00:42:49;;;;;;;1.45;1.35;;;3.90;99.90;;;;;;5013515;28;20065;-75
2021/11/23 00:45:16;;;;;;;0.93;0.93;;;4.00;99.90;;;;;;5013528;28;20049;-75
2021/11/23 00:47:43;;;;;;;0.20;0.20;;;3.90;99.90;;;;;;5014578;28;20129;-76
2021/11/23 00:50:10;;;;;;;0.22;0.22;;;4.20;99.90;;;;;;5014454;28;20030;-76
2021/11/23 00:52:36;;;;;;;0.77;0.75;;;4.20;99.90;;;;;;5013258;28;20481;-76
2021/11/23 00:55:04;;;;;;;1.73;1.27;;;4.30;99.90;;;;;;5013239;28;20055;-76
2021/11/23 00:57:30;;;;;;;7.38;2.90;;;4.30;99.90;;;;;;5014528;28;20026;-75
2021/11/23 00:59:56;;;;;;;0.30;0.30;;;4.10;99.90;;;;;;5014450;28;20431;-76
2021/11/23 01:02:21;;;;;;;0.38;0.38;;;4.10;99.90;;;;;;5013251;28;20497;-75
2021/11/23 01:04:47;;;;;;;0.20;0.20;;;4.10;99.90;;;;;;5014374;28;20053;-75
2021/11/23 01:07:13;;;;;;;3.25;2.42;;;4.30;99.90;;;;;;5014421;28;20026;-76
2021/11/23 01:09:39;;;;;;;0.52;0.52;;;4.30;99.90;;;;;;5013101;28;20025;-76
2021/11/23 01:12:05;;;;;;;0.22;0.22;;;4.20;99.90;;;;;;4996603;28;20508;-75
2021/11/23 01:14:31;;;;;;;1.90;1.33;;;4.30;99.90;;;;;;5014286;28;20045;-76
2021/11/23 01:16:57;;;;;;;2.75;1.00;;;4.30;99.90;;;;;;5012829;28;20393;-76
2021/11/23 01:19:24;;;;;;;3.40;2.08;;;4.30;99.90;;;;;;5014076;28;20413;-76
2021/11/23 01:21:50;;;;;;;0.20;0.20;;;4.20;99.90;;;;;;5029452;28;20041;-75
2021/11/23 01:24:16;;;;;;;0.70;0.70;;;4.20;99.90;;;;;;5013946;28;20034;-75
2021/11/23 01:26:42;;;;;;;2.50;1.73;;;4.30;99.90;;;;;;5013916;28;20053;-75
2021/11/23 01:29:08;;;;;;;0.30;0.30;;;4.10;99.90;;;;;;5013912;28;20049;-76
2021/11/23 01:31:35;;;;;;;2.92;2.17;;;4.10;99.90;;;;;;5013858;28;20223;-75
2021/11/23 01:34:00;;;;;;;9.93;4.22;;;3.90;99.90;;;;;;5014057;28;20038;-75
2021/11/23 01:36:26;;;;;;;4.97;1.98;;;3.80;99.90;;;;;;5012580;28;20038;-75
2021/11/23 01:38:52;;;;;;;0.95;0.95;;;3.80;99.90;;;;;;5012413;28;20033;-75
2021/11/23 01:41:18;;;;;;;2.47;2.28;;;3.80;99.90;;;;;;5012308;28;20404;-75
2021/11/23 01:43:43;;;;;;;5.70;1.42;;;3.80;99.90;;;;;;5012370;28;20513;-76
2021/11/23 01:46:11;;;;;;;2.28;2.03;;;3.90;99.90;;;;;;5013500;28;20061;-76
2021/11/23 01:48:37;;;;;;;1.85;1.58;;;3.80;99.90;;;;;;5012341;28;20026;-75
2021/11/23 01:51:05;;;;;;;0.30;0.30;;;3.80;99.90;;;;;;5013410;28;20040;-75
2021/11/23 01:53:31;;;;;;;0.35;0.35;;;4.00;99.90;;;;;;5012094;28;20057;-75
2021/11/23 01:55:56;;;;;;;3.78;1.73;;;4.00;99.90;;;;;;5013425;28;20539;-75
2021/11/23 01:58:22;;;;;;;0.50;0.50;;;3.90;99.90;;;;;;5013358;28;20038;-76
2021/11/23 02:00:48;;;;;;;2.58;1.20;;;3.80;99.90;;;;;;5012754;28;20029;-75
2021/11/23 02:03:15;;;;;;;5.20;2.03;;;3.90;99.90;;;;;;5012047;28;20389;-76
2021/11/23 02:05:41;;;;;;;0.35;0.35;;;4.00;99.90;;;;;;5011962;28;20033;-76
2021/11/23 02:08:10;;;;;;;0.90;0.90;;;4.00;99.90;;;;;;5011942;28;20385;-75
2021/11/23 02:10:36;;;;;;;1.33;1.27;;;4.00;99.90;;;;;;5013152;28;20026;-76
2021/11/23 02:13:02;;;;;;;0.32;0.32;;;4.00;99.90;;;;;;5012196;28;20026;-75
2021/11/23 02:15:28;;;;;;;1.75;1.65;;;4.00;99.90;;;;;;5013025;28;20111;-75
2021/11/23 02:17:55;;;;;;;1.48;1.33;;;3.90;99.90;;;;;;5012951;28;20034;-76
2021/11/23 02:20:23;;;;;;;3.60;2.78;;;3.80;99.90;;;;;;5011666;28;20022;-76
2021/11/23 02:22:50;;;;;;;6.13;3.60;;;3.70;99.90;;;;;;5012829;28;20033;-75
2021/11/23 02:25:17;;;;;;;0.30;0.30;;;3.70;99.90;;;;;;5013143;28;20366;-75
2021/11/23 02:27:44;;;;;;;1.27;1.08;;;3.70;99.90;;;;;;5012997;28;20080;-76
2021/11/23 02:30:11;;;;;;;1.50;1.40;;;3.70;99.90;;;;;;5011467;28;20524;-76
2021/11/23 02:32:52;;;;;;;7.55;3.88;;;3.80;99.90;;;;;;5012743;28;20030;-75
2021/11/23 02:35:21;;;;;;;0.20;0.20;;;3.70;99.90;;;;;;5011833;28;20326;-76
2021/11/23 02:37:51;;;;;;;1.10;1.10;;;3.80;99.90;;;;;;5012733;28;20029;-75
2021/11/23 02:40:19;;;;;;;1.73;1.60;;;3.90;99.90;;;;;;5012601;28;20553;-75
2021/11/23 02:42:46;;;;;;;6.70;4.00;;;3.90;99.90;;;;;;5012623;28;20104;-76
2021/11/23 02:45:13;;;;;;;0.60;0.60;;;4.00;99.90;;;;;;5011240;28;20030;-75
2021/11/23 02:47:40;;;;;;;1.25;1.25;;;3.90;99.90;;;;;;5012507;28;20030;-76
2021/11/23 02:50:08;;;;;;;0.43;0.43;;;3.90;99.90;;;;;;5012408;28;20021;-76
2021/11/23 02:52:34;;;;;;;0.55;0.55;;;3.90;99.90;;;;;;5011191;28;20489;-76
2021/11/23 02:55:02;;;;;;;0.55;0.52;;;4.00;99.90;;;;;;5011258;28;20021;-76
2021/11/23 02:57:32;;;;;;;2.20;1.58;;;3.90;99.90;;;;;;5011135;28;20036;-76
2021/11/23 02:59:59;;;;;;;3.92;2.30;;;3.90;99.90;;;;;;5012246;28;20033;-75
2021/11/23 03:02:25;;;;;;;7.22;4.03;;;3.80;99.90;;;;;;5012307;28;20052;-76
2021/11/23 03:04:56;;;;;;;1.75;1.65;;;3.80;99.90;;;;;;5010948;28;20429;-76
2021/11/23 03:07:25;;;;;;;0.38;0.38;;;3.80;99.90;;;;;;5012341;28;20378;-76
2021/11/23 03:09:50;;;;;;;1.38;1.25;;;3.90;99.90;;;;;;5012080;28;20036;-76
2021/11/23 03:12:22;;;;;;;2.65;2.33;;;3.90;99.90;;;;;;4994152;28;20406;-76
2021/11/23 03:14:48;;;;;;;7.43;4.05;;;4.00;99.90;;;;;;5010518;28;20052;-76
2021/11/23 03:17:16;;;;;;;8.00;3.85;;;3.80;99.90;;;;;;5010843;28;20034;-75
2021/11/23 03:19:43;;;;;;;1.30;1.17;;;3.80;99.90;;;;;;5012121;28;20440;-76
2021/11/23 03:22:10;;;;;;;0.63;0.63;;;3.80;99.90;;;;;;5012116;28;20026;-75
2021/11/23 03:24:36;;;;;;;0.28;0.28;;;3.90;99.90;;;;;;5011890;28;20030;-76
2021/11/23 03:27:03;;;;;;;0.98;0.98;;;4.00;99.90;;;;;;5012114;28;20022;-76
2021/11/23 03:29:29;;;;;;;0.52;0.52;;;4.00;99.90;;;;;;5010667;28;20132;-76
2021/11/23 03:31:55;;;;;;;10.77;6.97;;;4.10;99.90;;;;;;5010694;28;20073;-75
2021/11/23 03:34:21;;;;;;;4.78;3.15;;;3.90;99.90;;;;;;5010680;28;20256;-76
2021/11/23 03:36:48;;;;;;;0.80;0.80;;;3.80;99.90;;;;;;5011902;28;20455;-76
2021/11/23 03:39:14;;;;;;;5.88;1.92;;;3.80;99.90;;;;;;5011930;28;20076;-75
2021/11/23 03:41:40;;;;;;;13.95;7.28;;;3.80;99.90;;;;;;5011789;28;20025;-75
2021/11/23 03:44:06;;;;;;;1.48;0.98;;;3.70;99.90;;;;;;5011716;28;20036;-75
2021/11/23 03:46:32;;;;;;;0.38;0.38;;;3.70;99.90;;;;;;5011882;28;20034;-75
2021/11/23 03:48:59;;;;;;;0.43;0.43;;;3.70;99.90;;;;;;5010655;28;20092;-75
2021/11/23 03:51:25;;;;;;;5.07;2.95;;;3.80;99.90;;;;;;5011821;28;20499;-76
2021/11/23 03:53:51;;;;;;;2.83;2.15;;;3.80;99.90;;;;;;5011735;28;20083;-75
2021/11/23 03:56:17;;;;;;;1.63;1.52;;;3.70;99.90;;;;;;5011679;28;20105;-76
2021/11/23 03:58:43;;;;;;;10.95;2.63;;;3.80;99.90;;;;;;5010511;28;20596;-76
2021/11/23 04:01:09;;;;;;;0.57;0.57;;;3.80;99.90;;;;;;5011607;28;20160;-76
2021/11/23 04:03:35;;;;;;;11.30;4.65;;;3.70;99.90;;;;;;5011652;28;20112;-76
2021/11/23 04:06:05;;;;;;;0.63;0.63;;;3.70;99.90;;;;;;5011708;28;20026;-75
2021/11/23 04:08:31;;;;;;;0.73;0.73;;;3.80;99.90;;;;;;5011557;28;20014;-75
2021/11/23 04:10:57;;;;;;;0.55;0.55;;;3.70;99.90;;;;;;5010286;28;20374;-75
2021/11/23 04:13:23;;;;;;;1.85;1.75;;;3.70;99.90;;;;;;5010299;28;20121;-75
2021/11/23 04:15:51;;;;;;;3.88;1.98;;;3.80;99.90;;;;;;5011497;28;20026;-75
2021/11/23 04:18:17;;;;;;;3.10;1.58;;;3.80;99.90;;;;;;5011466;28;20106;-75
2021/11/23 04:20:42;;;;;;;1.10;1.10;;;3.90;99.90;;;;;;5011475;28;20105;-75
2021/11/23 04:23:08;;;;;;;5.30;4.03;;;3.90;99.90;;;;;;5011423;28;20500;-75
2021/11/23 04:25:34;;;;;;;4.40;2.47;;;4.00;99.90;;;;;;5014341;28;20474;-76
2021/11/23 04:28:01;;;;;;;0.47;0.47;;;4.00;99.90;;;;;;4997391;28;20022;-75
2021/11/23 04:30:27;;;;;;;1.88;0.85;;;4.00;99.90;;;;;;5013834;28;20026;-74
2021/11/23 04:32:53;;;;;;;1.27;1.17;;;4.00;99.90;;;;;;5015371;28;20109;-75
2021/11/23 04:35:19;;;;;;;3.72;2.15;;;3.90;99.90;;;;;;5014907;28;20104;-75
2021/11/23 04:37:45;;;;;;;0.73;0.73;;;4.00;99.90;;;;;;5013694;28;20503;-75
2021/11/23 04:40:15;;;;;;;2.78;2.50;;;4.00;99.90;;;;;;4997237;28;20018;-75
2021/11/23 04:42:42;;;;;;;4.10;0.98;;;4.10;99.90;;;;;;5015156;28;20022;-76
2021/11/23 04:45:10;;;;;;;2.05;1.95;;;4.00;99.90;;;;;;5013482;28;20452;-76
2021/11/23 04:47:37;;;;;;;1.60;1.50;;;4.00;99.90;;;;;;5013390;28;20110;-76
2021/11/23 04:50:09;;;;;;;0.28;0.28;;;4.10;99.90;;;;;;5014579;28;20029;-75
2021/11/23 04:52:35;;;;;;;1.70;1.60;;;4.10;99.90;;;;;;5013433;28;20525;-76
2021/11/23 04:55:00;;;;;;;2.67;2.45;;;4.00;99.90;;;;;;4997007;28;20121;-76
2021/11/23 04:57:26;;;;;;;6.97;5.65;;;4.10;99.90;;;;;;5014595;28;20077;-76
2021/11/23 04:59:52;;;;;;;1.88;1.58;;;4.20;99.90;;;;;;5014382;28;20053;-76
2021/11/23 05:02:21;;;;;;;0.25;0.25;;;4.20;99.90;;;;;;5014738;28;20485;-75
2021/11/23 05:04:46;;;;;;;3.33;1.33;;;4.20;99.90;;;;;;5013032;28;20026;-75
2021/11/23 05:07:12;;;;;;;1.23;0.77;;;4.20;99.90;;;;;;5014362;28;20018;-75
2021/11/23 05:09:38;;;;;;;0.77;0.77;;;4.20;99.90;;;;;;5013311;28;20385;-75
2021/11/23 05:12:05;;;;;;;1.05;1.05;;;4.20;99.90;;;;;;5014214;28;20139;-75
2021/11/23 05:14:30;;;;;;;1.45;0.95;;;4.20;99.90;;;;;;5029446;28;20061;-75
2021/11/23 05:16:56;;;;;;;0.35;0.35;;;4.20;99.90;;;;;;5014172;28;20103;-74
2021/11/23 05:19:22;;;;;;;0.50;0.50;;;4.20;99.90;;;;;;5013947;28;20022;-74
2021/11/23 05:21:48;;;;;;;0.43;0.43;;;4.30;99.90;;;;;;5012944;28;20034;-74
2021/11/23 05:24:14;;;;;;;1.75;1.40;;;4.20;99.90;;;;;;5012806;28;20053;-73
2021/11/23 05:26:40;;;;;;;0.20;0.20;;;4.20;99.90;;;;;;5013924;28;20030;-74
2021/11/23 05:29:06;;;;;;;0.40;0.40;;;4.30;99.90;;;;;;5012809;28;20018;-74
2021/11/23 05:31:33;;;;;;;0.95;0.95;;;4.20;99.90;;;;;;5012379;28;20363;-74
2021/11/23 05:33:59;;;;;;;0.22;0.22;;;4.30;99.90;;;;;;5013818;28;20030;-75
2021/11/23 05:36:25;;;;;;;0.30;0.30;;;4.20;99.90;;;;;;5012875;28;20528;-75
2021/11/23 05:38:51;;;;;;;1.00;1.00;;;4.30;99.90;;;;;;5012441;28;20026;-75
2021/11/23 05:41:17;;;;;;;0.77;0.77;;;4.30;99.90;;;;;;5013745;28;20018;-75
2021/11/23 05:43:43;;;;;;;4.32;3.13;;;4.30;99.90;;;;;;5012446;28;20057;-74
2021/11/23 05:46:08;;;;;;;1.20;1.15;;;4.30;99.90;;;;;;5028870;28;20125;-74
2021/11/23 05:48:35;;;;;;;1.08;1.00;;;4.20;99.90;;;;;;5013621;28;20390;-74
2021/11/23 05:51:03;;;;;;;1.17;0.73;;;4.20;99.90;;;;;;5012202;28;20022;-74
2021/11/23 05:53:35;;;;;;;0.93;0.93;;;4.30;99.90;;;;;;4995965;28;20374;-74
2021/11/23 05:56:01;;;;;;;2.78;2.60;;;4.30;99.90;;;;;;5013501;28;20026;-75
2021/11/23 05:58:27;;;;;;;0.63;0.63;;;4.20;99.90;;;;;;5013405;28;20029;-75
2021/11/23 06:00:53;;;;;;;0.20;0.20;;;4.30;99.90;;;;;;5011970;28;20102;-74
2021/11/23 06:03:19;;;;;;;0.80;0.80;;;4.30;99.90;;;;;;5011982;28;20112;-75
2021/11/23 06:05:45;;;;;;;1.77;1.65;;;4.30;99.90;;;;;;5011905;28;20026;-74
2021/11/23 06:08:11;;;;;;;0.43;0.43;;;4.30;99.90;;;;;;5013196;28;20022;-73
2021/11/23 06:10:37;;;;;;;4.28;0.45;;;4.30;99.90;;;;;;5013128;28;20477;-75
2021/11/23 06:13:03;;;;;;;1.25;1.15;;;4.20;99.90;;;;;;5013248;28;20021;-75
2021/11/23 06:15:29;;;;;;;0.45;0.45;;;4.20;99.90;;;;;;5011868;28;20264;-75
2021/11/23 06:18:02;;;;;;;3.42;1.00;;;4.20;99.90;;;;;;5011829;28;20347;-75
2021/11/23 06:20:29;;;;;;;0.20;0.20;;;4.20;99.90;;;;;;5013081;28;20014;-75
2021/11/23 06:23:03;;;;;;;5.13;3.45;;;4.20;99.90;;;;;;5013011;28;20025;-75
2021/11/23 06:25:29;;;;;;;0.45;0.45;;;4.20;99.90;;;;;;5012814;28;20018;-75
2021/11/23 06:27:56;;;;;;;4.30;1.00;;;4.20;99.90;;;;;;5012794;28;20033;-74
2021/11/23 06:30:23;;;;;;;0.20;0.20;;;4.20;99.90;;;;;;5012803;28;20486;-75
2021/11/23 06:32:49;;;;;;;13.05;7.32;;;4.20;99.90;;;;;;4994879;28;20030;-75
2021/11/23 06:35:15;;;;;;;7.28;3.70;;;4.20;99.90;;;;;;5012735;28;20048;-74
2021/11/23 06:37:42;;;;;;;0.50;0.50;;;4.20;99.90;;;;;;5012684;28;20367;-75
2021/11/23 06:40:09;;;;;;;3.17;2.95;;;4.10;99.90;;;;;;5011167;28;20022;-74
2021/11/23 06:42:35;;;;;;;0.75;0.75;;;4.10;99.90;;;;;;5012551;28;20497;-75
2021/11/23 06:45:02;;;;;;;2.10;1.95;;;4.10;99.90;;;;;;5012412;28;20029;-75
2021/11/23 06:47:28;;;;;;;2.65;0.93;;;4.10;99.90;;;;;;5012301;28;20061;-74
2021/11/23 06:49:54;;;;;;;0.55;0.55;;;4.00;99.90;;;;;;5011027;28;20052;-73
2021/11/23 06:52:23;;;;;;;2.83;2.55;;;4.10;99.90;;;;;;5027343;28;20091;-74
2021/11/23 06:54:49;;;;;;;4.03;3.63;;;4.00;99.90;;;;;;5011089;28;20037;-74
2021/11/23 06:57:15;;;;;;;1.25;0.75;;;3.90;99.90;;;;;;5012912;28;20030;-75
2021/11/23 06:59:41;;;;;;;0.63;0.63;;;3.80;99.90;;;;;;5012236;28;20080;-74
2021/11/23 07:02:07;;;;;;;0.60;0.60;;;3.90;99.90;;;;;;5027404;28;20537;-74
2021/11/23 07:04:34;;;;;;;0.30;0.30;;;3.90;99.90;;;;;;5027213;28;20161;-75
2021/11/23 07:07:00;;;;;;;14.35;3.10;;;4.00;99.90;;;;;;5010950;28;20048;-75
2021/11/23 07:09:26;;;;;;;0.35;0.35;;;4.00;99.90;;;;;;5012320;28;20021;-75
2021/11/23 07:11:52;;;;;;;1.75;1.30;;;4.00;99.90;;;;;;5012248;28;20400;-75
2021/11/23 07:14:19;;;;;;;7.38;4.57;;;4.10;99.90;;;;;;5010176;28;20037;-75
2021/11/23 07:16:45;;;;;;;1.85;1.75;;;4.20;99.90;;;;;;5026837;28;20398;-75
2021/11/23 07:19:12;;;;;;;0.40;0.40;;;4.20;99.90;;;;;;5011828;28;20018;-75
2021/11/23 07:21:38;;;;;;;0.30;0.30;;;4.40;99.90;;;;;;4994485;28;20512;-76
2021/11/23 07:24:04;;;;;;;3.50;3.20;;;4.50;99.90;;;;;;5011582;28;20089;-74
2021/11/23 07:26:31;;;;;;;0.30;0.30;;;4.40;99.90;;;;;;4993601;28;20144;-75
2021/11/23 07:29:01;;;;;;;1.70;1.35;;;4.30;99.90;;;;;;5010243;28;20065;-75
2021/11/23 07:31:28;;;;;;;0.40;0.40;;;4.20;99.90;;;;;;5011287;28;20022;-74
2021/11/23 07:33:54;;;;;;;2.75;2.50;;;4.20;99.90;;;;;;4993851;28;20029;-75
2021/11/23 07:36:22;;;;;;;0.75;0.75;;;4.20;99.90;;;;;;5009935;28;20030;-75
2021/11/23 07:38:50;;;;;;;5.55;2.25;;;4.20;99.90;;;;;;5009935;28;20037;-74
2021/11/23 07:41:16;;;;;;;4.38;3.35;;;4.20;99.90;;;;;;5025180;28;20045;-74
2021/11/23 07:43:42;;;;;;;6.32;5.20;;;4.10;99.90;;;;;;5009632;28;20034;-74
2021/11/23 07:46:08;;;;;;;0.55;0.50;;;4.00;99.90;;;;;;4993536;28;20014;-75
2021/11/23 07:48:35;;;;;;;1.85;1.42;;;3.90;99.90;;;;;;4991631;28;20512;-75
2021/11/23 07:51:00;;;;;;;3.00;1.98;;;4.00;99.90;;;;;;5008866;28;20045;-75
2021/11/23 07:53:26;;;;;;;0.50;0.50;;;4.00;99.90;;;;;;5008231;28;20073;-74
2021/11/23 07:55:52;;;;;;;3.10;1.58;;;4.00;99.90;;;;;;5009401;28;20613;-74
2021/11/23 07:58:18;;;;;;;8.13;1.30;;;4.00;99.90;;;;;;5009967;28;20022;-76
2021/11/23 08:00:45;;;;;;;1.15;1.05;;;4.10;99.90;;;;;;4995588;28;20029;-76
2021/11/23 08:03:11;;;;;;;0.65;0.65;;;4.00;99.90;;;;;;5030104;28;20030;-77
2021/11/23 08:05:40;;;;;;;1.05;1.05;;;4.10;99.90;;;;;;5014385;28;20030;-79
2021/11/23 08:08:09;;;;;;;1.20;1.10;;;4.00;99.90;;;;;;5015733;28;20072;-77
2021/11/23 08:10:35;;;;;;;2.60;1.75;;;4.20;99.90;;;;;;5016555;28;20022;-79
2021/11/23 08:13:01;;;;;;;0.50;0.50;;;4.10;99.90;;;;;;5016294;28;20048;-78
2021/11/23 08:15:27;;;;;;;3.53;2.90;;;4.10;99.90;;;;;;5016698;28;20053;-77
2021/11/23 08:17:53;;;;;;;6.40;2.33;;;4.10;99.90;;;;;;5017004;28;20045;-77
2021/11/23 08:20:19;;;;;;;1.10;0.55;;;4.00;99.90;;;;;;5019728;28;20057;-81
2021/11/23 08:22:45;;;;;;;0.20;0.20;;;4.20;99.90;;;;;;5024036;28;20038;-80
2021/11/23 08:25:12;;;;;;;2.83;1.75;;;4.40;99.90;;;;;;5021789;28;20026;-82
2021/11/23 08:27:39;;;;;;;1.05;1.05;;;4.60;99.90;;;;;;5021941;28;20026;-81
2021/11/23 08:30:06;;;;;;;0.20;0.20;;;4.60;99.90;;;;;;5006175;28;20108;-81
2021/11/23 08:32:32;;;;;;;1.15;0.82;;;4.70;99.90;;;;;;5019853;28;20022;-77
2021/11/23 08:34:58;;;;;;;1.10;1.10;;;4.60;99.90;;;;;;5016669;28;20385;-76
2021/11/23 08:37:26;;;;;;;5.68;2.58;;;4.40;99.90;;;;;;5016565;28;20030;-78
2021/11/23 08:39:57;;;;;;;0.80;0.80;;;4.20;99.90;;;;;;5016441;28;20482;-78
2021/11/23 08:42:24;;;;;;;1.35;1.25;;;4.00;99.90;;;;;;5015044;28;20018;-75
2021/11/23 08:44:50;;;;;;;0.28;0.28;;;4.00;99.90;;;;;;4996701;28;20025;-76
2021/11/23 08:47:17;;;;;;;4.28;3.40;;;4.00;99.90;;;;;;5029493;28;20464;-76
2021/11/23 08:49:44;;;;;;;36.08;18.25;;;4.10;99.90;;;;;;5029545;28;20018;-76
2021/11/23 08:52:11;;;;;;;1.63;1.25;;;4.10;99.90;;;;;;4993386;28;20038;-76
2021/11/23 08:54:37;;;;;;;1.00;1.00;;;4.10;99.90;;;;;;5008112;28;20442;-75
2021/11/23 08:57:08;;;;;;;2.72;2.25;;;4.10;99.90;;;;;;5012562;28;20405;-76
2021/11/23 08:59:38;;;;;;;1.17;1.17;;;4.10;99.90;;;;;;5029355;28;20030;-76
2021/11/23 09:02:05;;;;;;;0.93;0.93;;;4.10;99.90;;;;;;5013424;28;20033;-77
2021/11/23 09:04:33;;;;;;;1.23;1.13;;;4.20;99.90;;;;;;5013663;28;20022;-75
2021/11/23 09:07:03;;;;;;;0.45;0.45;;;4.20;99.90;;;;;;5012448;28;20092;-75
2021/11/23 09:09:31;;;;;;;0.40;0.40;;;4.10;99.90;;;;;;5013810;28;20109;-76
2021/11/23 09:11:58;;;;;;;0.52;0.52;;;4.20;99.90;;;;;;5012365;28;20646;-76
2021/11/23 09:14:27;;;;;;;0.85;0.85;;;4.30;99.90;;;;;;5013464;28;20436;-75
2021/11/23 09:16:53;;;;;;;14.02;3.90;;;4.30;99.90;;;;;;5012428;28;20022;-76
2021/11/23 09:19:19;;;;;;;1.77;1.15;;;4.30;99.90;;;;;;5012490;28;20381;-75
2021/11/23 09:21:44;;;;;;;0.47;0.47;;;4.30;99.90;;;;;;5013477;28;20608;-76
2021/11/23 09:24:10;;;;;;;0.65;0.65;;;4.30;99.90;;;;;;5012372;28;20026;-76
2021/11/23 09:26:36;;;;;;;2.75;2.13;;;4.30;99.90;;;;;;5013117;28;20389;-75
2021/11/23 09:29:03;;;;;;;7.47;5.40;;;4.30;99.90;;;;;;5028832;28;20040;-78
2021/11/23 09:31:29;;;;;;;0.68;0.68;;;4.30;99.90;;;;;;5011802;28;20037;-76
2021/11/23 09:33:55;;;;;;;9.38;4.22;;;4.30;99.90;;;;;;5028676;28;20030;-76
2021/11/23 09:36:20;;;;;;;2.95;2.35;;;4.30;99.90;;;;;;5028145;28;20033;-76
2021/11/23 09:38:46;;;;;;;4.95;4.28;;;4.30;99.90;;;;;;5012163;28;20108;-76
2021/11/23 09:41:12;;;;;;;2.88;0.88;;;4.20;99.90;;;;;;5013176;28;20532;-76
2021/11/23 09:43:40;;;;;;;2.72;2.15;;;4.20;99.90;;;;;;5012880;28;20049;-75
2021/11/23 09:46:08;;;;;;;7.50;3.92;;;4.20;99.90;;;;;;4993331;28;20022;-75
2021/11/23 09:48:35;;;;;;;0.60;0.60;;;4.20;99.90;;;;;;5012474;28;20030;-76
2021/11/23 09:51:01;;;;;;;3.78;3.50;;;4.20;99.90;;;;;;5012857;28;20029;-76
2021/11/23 09:53:27;;;;;;;0.30;0.30;;;4.30;99.90;;;;;;5011150;28;20413;-76
2021/11/23 09:55:53;;;;;;;0.20;0.20;;;4.40;99.90;;;;;;5013202;28;20033;-76
2021/11/23 09:58:21;;;;;;;3.55;0.60;;;4.40;99.90;;;;;;5012912;28;20470;-75
2021/11/23 10:00:50;;;;;;;2.50;0.65;;;4.40;99.90;;;;;;5012970;28;20025;-75
2021/11/23 10:03:30;;;;;;;0.98;0.52;;;4.40;99.90;;;;;;5012837;28;20121;-75
2021/11/23 10:06:20;;;;;;;2.22;2.05;;;4.20;99.90;;;;;;5013176;28;20608;-75
2021/11/23 10:08:49;;;;;;;1.65;1.27;;;4.30;99.90;;;;;;5012997;28;20018;-74
2021/11/23 10:11:32;;;;;;;4.10;1.88;;;4.30;99.90;;;;;;5013053;28;20037;-75
2021/11/23 10:14:00;;;;;;;1.40;1.30;;;4.30;99.90;;;;;;5012714;28;20490;-75
2021/11/23 10:16:47;;;;;;;1.30;1.30;;;4.40;99.90;;;;;;5012660;28;20474;-75
2021/11/23 10:19:15;;;;;;;0.35;0.35;;;4.50;99.90;;;;;;5012619;28;20025;-75
2021/11/23 10:21:56;;;;;;;1.08;0.90;;;4.50;99.90;;;;;;5027422;28;20109;-75
2021/11/23 10:24:22;;;;;;;0.88;0.88;;;4.60;99.90;;;;;;4991598;28;20030;-75
2021/11/23 10:26:48;;;;;;;4.07;2.08;;;4.60;99.90;;;;;;4991714;28;20026;-75
2021/11/23 10:29:16;;;;;;;0.95;0.95;;;4.60;99.90;;;;;;5010701;28;20034;-75
2021/11/23 10:31:44;;;;;;;0.30;0.30;;;4.50;99.90;;;;;;5027646;28;20109;-75
2021/11/23 10:34:13;;;;;;;3.58;1.98;;;4.40;99.90;;;;;;5010873;28;20037;-76
2021/11/23 10:36:45;;;;;;;17.55;4.88;;;4.40;99.90;;;;;;5012431;28;20382;-75
2021/11/23 10:39:14;;;;;;;0.30;0.30;;;4.50;99.90;;;;;;5010492;28;20026;-75
2021/11/23 10:41:42;;;;;;;0.40;0.35;;;4.40;99.90;;;;;;5011078;28;20113;-76
2021/11/23 10:44:21;;;;;;;1.77;1.60;;;4.50;99.90;;;;;;5012483;28;20486;-76
2021/11/23 10:46:52;;;;;;;0.82;0.82;;;4.50;99.90;;;;;;5026866;28;20389;-75
2021/11/23 10:49:30;;;;;;;3.40;0.98;;;4.40;99.90;;;;;;4993904;28;20022;-76
2021/11/23 10:51:57;;;;;;;1.55;1.38;;;4.40;99.90;;;;;;5010823;28;20022;-77
2021/11/23 10:54:24;;;;;;;0.45;0.45;;;4.40;99.90;;;;;;5026445;28;20168;-75
2021/11/23 10:57:05;;;;;;;2.97;1.90;;;4.50;99.90;;;;;;5027203;28;20052;-76
2021/11/23 10:59:37;;;;;;;0.47;0.47;;;4.30;99.90;;;;;;5010550;28;20026;-76
2021/11/23 11:02:03;;;;;;;10.35;4.85;;;4.30;99.90;;;;;;4994357;28;20729;-76
2021/11/23 11:04:33;;;;;;;3.30;1.05;;;4.20;99.90;;;;;;5010161;28;20369;-76
2021/11/23 11:07:01;;;;;;;0.63;0.63;;;4.30;99.90;;;;;;5010021;28;20018;-75
2021/11/23 11:09:29;;;;;;;13.25;3.70;;;4.50;99.90;;;;;;5011687;28;20112;-76
2021/11/23 11:11:55;;;;;;;1.25;1.10;;;4.40;99.90;;;;;;5011744;28;20030;-76
2021/11/23 11:14:22;;;;;;;0.45;0.45;;;4.50;99.90;;;;;;5010713;28;20032;-76
2021/11/23 11:16:49;;;;;;;1.38;1.27;;;4.30;99.90;;;;;;5030996;28;20160;-76
2021/11/23 11:19:16;;;;;;;0.40;0.40;;;4.20;99.90;;;;;;5011413;28;20030;-75
2021/11/23 11:21:48;;;;;;;1.45;1.00;;;4.10;99.90;;;;;;5011639;28;20022;-75
2021/11/23 11:24:26;;;;;;;1.75;1.65;;;4.20;99.90;;;;;;5011433;28;20089;-75
2021/11/23 11:26:56;;;;;;;1.80;1.52;;;4.20;99.90;;;;;;5011762;28;20029;-76
2021/11/23 11:29:30;;;;;;;13.13;2.97;;;4.40;99.90;;;;;;5027046;28;20474;-75
2021/11/23 11:31:59;;;;;;;2.05;1.85;;;4.20;99.90;;;;;;5026592;28;20517;-75
2021/11/23 11:34:26;;;;;;;0.90;0.90;;;4.20;99.90;;;;;;5025362;28;20164;-75
2021/11/23 11:37:09;;;;;;;2.60;2.20;;;4.20;99.90;;;;;;5011433;28;20030;-75
2021/11/23 11:39:38;;;;;;;1.05;1.05;;;4.30;99.90;;;;;;5010329;28;20025;-76
2021/11/23 11:42:09;;;;;;;0.30;0.30;;;4.40;99.90;;;;;;5011512;28;20026;-75
2021/11/23 11:44:43;;;;;;;3.38;2.70;;;4.50;99.90;;;;;;5010991;28;20030;-75
2021/11/23 11:47:12;;;;;;;0.93;0.93;;;4.50;99.90;;;;;;5011397;28;20021;-76
2021/11/23 11:49:52;;;;;;;3.58;2.70;;;4.60;99.90;;;;;;5011027;28;20514;-76
2021/11/23 11:52:23;;;;;;;0.50;0.50;;;4.50;99.90;;;;;;5011343;28;20029;-76
2021/11/23 11:55:14;;;;;;;2.28;1.73;;;4.50;99.90;;;;;;5025868;28;20026;-75
2021/11/23 11:57:49;;;;;;;1.30;1.30;;;4.50;99.90;;;;;;5008068;28;20037;-75
2021/11/23 12:00:26;;;;;;;1.23;1.20;;;4.60;99.90;;;;;;5009825;28;20034;-76
2021/11/23 12:02:54;;;;;;;1.50;1.40;;;4.70;99.90;;;;;;5010274;28;20029;-75
2021/11/23 12:05:20;;;;;;;3.75;2.85;;;4.70;99.90;;;;;;5011093;28;20033;-76
2021/11/23 12:07:48;;;;;;;0.73;0.73;;;4.60;99.90;;;;;;5011235;28;20049;-75
2021/11/23 12:10:27;;;;;;;1.27;1.17;;;4.50;99.90;;;;;;5010976;28;20018;-76
2021/11/23 12:12:56;;;;;;;1.20;1.10;;;4.60;99.90;;;;;;5010277;28;20033;-76
2021/11/23 12:15:36;;;;;;;0.82;0.82;;;4.50;99.90;;;;;;5011109;28;20048;-76
2021/11/23 12:18:10;;;;;;;0.65;0.52;;;4.50;99.90;;;;;;5011315;28;20022;-76
2021/11/23 12:20:58;;;;;;;0.45;0.45;;;4.50;99.90;;;;;;5026415;28;20116;-75
2021/11/23 12:23:40;;;;;;;0.77;0.77;;;4.60;99.90;;;;;;4992534;28;20403;-75
2021/11/23 12:26:14;;;;;;;3.05;2.70;;;4.50;99.90;;;;;;5010630;28;20014;-76
2021/11/23 12:28:58;;;;;;;0.40;0.40;;;4.40;99.90;;;;;;5011127;28;20075;-76
2021/11/23 12:31:27;;;;;;;0.43;0.43;;;4.50;99.90;;;;;;5006228;28;20375;-75
2021/11/23 12:34:00;;;;;;;3.45;2.08;;;4.60;99.90;;;;;;5026029;28;20513;-75
2021/11/23 12:36:29;;;;;;;2.58;2.38;;;4.60;99.90;;;;;;5009728;28;20045;-75
2021/11/23 12:39:11;;;;;;;31.55;2.72;;;4.50;99.90;;;;;;5009849;28;20030;-75
2021/11/23 12:41:37;;;;;;;1.38;1.13;;;4.30;99.90;;;;;;5009681;28;20029;-75
2021/11/23 12:44:42;;;;;;;0.30;0.30;;;4.40;99.90;;;;;;5026148;28;20087;-75
2021/11/23 12:47:20;;;;;;;0.88;0.63;;;4.50;99.90;;;;;;5007631;28;20040;-75
2021/11/23 12:49:59;;;;;;;3.42;2.15;;;4.60;99.90;;;;;;5012752;28;20030;-75
2021/11/23 12:52:26;;;;;;;0.22;0.22;;;4.60;99.90;;;;;;5012532;28;20541;-76
2021/11/23 12:54:53;;;;;;;1.92;1.80;;;4.60;99.90;;;;;;5012225;28;20018;-75
2021/11/23 12:57:21;;;;;;;3.00;0.90;;;4.70;99.90;;;;;;5011663;28;20026;-76
2021/11/23 12:59:59;;;;;;;0.20;0.20;;;4.70;99.90;;;;;;5013465;28;20026;-76
2021/11/23 13:02:29;;;;;;;1.15;1.13;;;4.70;99.90;;;;;;5013920;28;20029;-76